Time;durP1;ratioP1;P1;durP2;ratioP2;P2;SDS_P1;SDS_P2;PMS_P1;PMS_P2;Temp;Humidity;BMP_temperature;BMP_pressure;BME280_temperature;BME280_humidity;BME280_pressure;Samples;Min_cycle;Max_cycle;Signal;HPM_P1;HPM_P2
2023/06/28 00:01:06;;;;;;;;;;;;;;;22.82;39.66;101334.03;5056221;28;19917;-77
2023/06/28 00:03:32;;;;;;;;;;;;;;;22.79;40.10;101332.69;5064252;28;19924;-77
2023/06/28 00:05:57;;;;;;;;;;;;;;;22.74;39.90;101332.03;5064486;28;19927;-77
2023/06/28 00:08:22;;;;;;;;;;;;;;;22.68;39.91;101338.75;5062284;28;20402;-77
2023/06/28 00:10:49;;;;;;;;;;;;;;;22.69;40.01;101334.91;5057758;28;19924;-78
2023/06/28 00:13:15;;;;;;;;;;;;;;;22.69;40.17;101335.72;5060287;28;19917;-77
2023/06/28 00:15:40;;;;;;;;;;;;;;;22.69;40.22;101326.69;5062196;28;20395;-77
2023/06/28 00:18:07;;;;;;;;;;;;;;;22.69;40.49;101330.25;5062930;28;19923;-76
2023/06/28 00:20:33;;;;;;;;;;;;;;;22.59;40.35;101336.78;5059938;28;19928;-77
2023/06/28 00:22:59;;;;;;;;;;;;;;;22.58;40.29;101326.97;5060189;28;21049;-77
2023/06/28 00:25:25;;;;;;;;;;;;;;;22.62;40.41;101324.41;5060070;28;20372;-77
2023/06/28 00:27:50;;;;;;;;;;;;;;;22.65;40.48;101333.94;5064761;28;19920;-77
2023/06/28 00:30:16;;;;;;;;;;;;;;;22.65;40.28;101333.94;5061470;28;19927;-77
2023/06/28 00:32:41;;;;;;;;;;;;;;;22.60;40.43;101330.19;5057971;28;20388;-77
2023/06/28 00:35:07;;;;;;;;;;;;;;;22.60;40.36;101332.91;5062997;28;19932;-77
2023/06/28 00:37:32;;;;;;;;;;;;;;;22.57;40.78;101330.81;5062419;28;20004;-77
2023/06/28 00:39:58;;;;;;;;;;;;;;;22.56;40.58;101331.94;5058562;28;19921;-77
2023/06/28 00:42:23;;;;;;;;;;;;;;;22.51;40.73;101337.56;5060768;28;19924;-77
2023/06/28 00:44:48;;;;;;;;;;;;;;;22.46;41.08;101334.97;5057720;28;20677;-77
2023/06/28 00:47:14;;;;;;;;;;;;;;;22.45;40.99;101338.00;5060276;28;19940;-77
2023/06/28 00:49:40;;;;;;;;;;;;;;;22.45;41.21;101336.09;5060287;28;19921;-77
2023/06/28 00:52:06;;;;;;;;;;;;;;;22.41;41.03;101334.28;5053282;28;20296;-76
2023/06/28 00:54:31;;;;;;;;;;;;;;;22.38;41.19;101324.78;5058375;28;20392;-77
2023/06/28 00:56:56;;;;;;;;;;;;;;;22.38;41.22;101327.53;5059617;28;20418;-77
2023/06/28 00:59:22;;;;;;;;;;;;;;;22.38;41.27;101329.44;5058718;28;19920;-76
2023/06/28 01:01:50;;;;;;;;;;;;;;;22.38;41.24;101327.53;5059112;28;20415;-77
2023/06/28 01:04:15;;;;;;;;;;;;;;;22.36;41.34;101332.50;5065101;28;20027;-77
2023/06/28 01:06:42;;;;;;;;;;;;;;;22.29;41.22;101327.50;5057785;28;20431;-77
2023/06/28 01:09:08;;;;;;;;;;;;;;;22.23;41.60;101327.91;5059609;28;19917;-77
2023/06/28 01:11:34;;;;;;;;;;;;;;;22.19;41.86;101326.94;5061969;28;20350;-77
2023/06/28 01:13:59;;;;;;;;;;;;;;;22.14;41.73;101325.16;5060870;28;19925;-77
2023/06/28 01:16:25;;;;;;;;;;;;;;;22.13;41.57;101323.53;5057982;28;19974;-77
2023/06/28 01:18:50;;;;;;;;;;;;;;;22.14;42.02;101329.81;5055779;28;19920;-76
2023/06/28 01:21:16;;;;;;;;;;;;;;;22.15;41.68;101325.94;5058919;28;20438;-77
2023/06/28 01:23:41;;;;;;;;;;;;;;;22.13;41.94;101328.19;5057932;28;19920;-76
2023/06/28 01:26:08;;;;;;;;;;;;;;;22.10;41.75;101334.28;5056869;28;19959;-77
2023/06/28 01:28:34;;;;;;;;;;;;;;;22.09;41.84;101330.75;5054917;28;20036;-77
2023/06/28 01:30:59;;;;;;;;;;;;;;;22.12;41.96;101332.03;5062160;28;20027;-77
2023/06/28 01:33:25;;;;;;;;;;;;;;;22.07;42.01;101327.50;5059340;28;22456;-77
2023/06/28 01:35:50;;;;;;;;;;;;;;;22.01;42.13;101325.97;5055788;28;19986;-78
2023/06/28 01:38:16;;;;;;;;;;;;;;;22.03;41.92;101324.56;5059683;28;20460;-78
2023/06/28 01:40:42;;;;;;;;;;;;;;;22.07;42.08;101324.75;5057960;28;19973;-78
2023/06/28 01:43:08;;;;;;;;;;;;;;;22.11;42.13;101316.78;5058230;28;19921;-78
2023/06/28 01:45:33;;;;;;;;;;;;;;;22.12;41.69;101315.66;5063667;28;20020;-78
2023/06/28 01:47:59;;;;;;;;;;;;;;;22.10;41.76;101313.25;5057452;28;19921;-78
2023/06/28 01:50:25;;;;;;;;;;;;;;;22.13;41.87;101322.72;5062760;28;19929;-78
2023/06/28 01:52:50;;;;;;;;;;;;;;;22.13;42.18;101317.28;5060686;28;19925;-77
2023/06/28 01:55:16;;;;;;;;;;;;;;;22.09;41.98;101321.75;5062147;28;19924;-78
2023/06/28 01:57:41;;;;;;;;;;;;;;;22.12;41.93;101315.66;5058516;28;19916;-77
2023/06/28 02:00:08;;;;;;;;;;;;;;;22.13;41.96;101314.53;5056979;28;20033;-77
2023/06/28 02:02:34;;;;;;;;;;;;;;;22.12;42.04;101318.38;5059676;28;20377;-76
2023/06/28 02:04:59;;;;;;;;;;;;;;;22.08;41.96;101309.19;5061670;28;19993;-77
2023/06/28 02:07:24;;;;;;;;;;;;;;;22.02;42.11;101311.22;5055613;28;19969;-77
2023/06/28 02:09:50;;;;;;;;;;;;;;;22.00;42.53;101313.47;5055072;28;19986;-76
2023/06/28 02:12:15;;;;;;;;;;;;;;;21.94;42.41;101312.78;5055136;28;20435;-76
2023/06/28 02:14:40;;;;;;;;;;;;;;;21.93;41.93;101316.63;5055024;28;19924;-76
2023/06/28 02:17:13;;;;;;;;;;;;;;;21.94;42.47;101309.25;5056436;28;20023;-77
2023/06/28 02:19:39;;;;;;;;;;;;;;;21.94;42.17;101304.59;5060489;28;19920;-76
2023/06/28 02:22:04;;;;;;;;;;;;;;;21.93;42.42;101313.09;5053521;28;21346;-77
2023/06/28 02:24:30;;;;;;;;;;;;;;;21.91;42.08;101313.41;5059019;28;19920;-78
2023/06/28 02:26:55;;;;;;;;;;;;;;;21.88;42.40;101315.94;5054999;28;20378;-77
2023/06/28 02:29:20;;;;;;;;;;;;;;;21.87;42.32;101314.31;5061014;28;19924;-77
2023/06/28 02:31:46;;;;;;;;;;;;;;;21.88;42.36;101310.47;5057059;28;19947;-77
2023/06/28 02:34:11;;;;;;;;;;;;;;;21.91;42.52;101318.88;5058503;28;20215;-77
2023/06/28 02:36:36;;;;;;;;;;;;;;;21.88;42.74;101319.47;5061635;28;19921;-77
2023/06/28 02:39:01;;;;;;;;;;;;;;;21.82;42.64;101325.38;5055774;28;19928;-77
2023/06/28 02:41:27;;;;;;;;;;;;;;;21.79;43.01;101318.63;5056574;28;19917;-77
2023/06/28 02:43:52;;;;;;;;;;;;;;;21.81;42.70;101329.22;5055599;28;19927;-77
2023/06/28 02:46:17;;;;;;;;;;;;;;;21.83;42.83;101324.25;5065565;28;19917;-77
2023/06/28 02:48:43;;;;;;;;;;;;;;;21.79;43.06;101324.06;5059578;28;20363;-77
2023/06/28 02:51:08;;;;;;;;;;;;;;;21.80;42.99;101325.69;5061974;28;20017;-77
2023/06/28 02:53:33;;;;;;;;;;;;;;;21.76;43.22;101327.41;5067440;28;19935;-77
2023/06/28 02:55:58;;;;;;;;;;;;;;;21.73;43.17;101329.97;5061795;28;19920;-77
2023/06/28 02:58:24;;;;;;;;;;;;;;;21.76;43.16;101324.69;5061291;28;19924;-77
2023/06/28 03:00:49;;;;;;;;;;;;;;;21.77;43.20;101322.78;5060168;28;19920;-77
2023/06/28 03:03:17;;;;;;;;;;;;;;;21.78;43.11;101321.66;5059997;28;19923;-77
2023/06/28 03:05:42;;;;;;;;;;;;;;;21.79;43.33;101320.53;5057888;28;19920;-76
2023/06/28 03:08:07;;;;;;;;;;;;;;;21.78;43.16;101308.81;5061737;28;19936;-76
2023/06/28 03:10:33;;;;;;;;;;;;;;;21.78;43.05;101319.72;5059304;28;19964;-77
2023/06/28 03:12:58;;;;;;;;;;;;;;;21.74;43.29;101316.00;5061364;28;19924;-77
2023/06/28 03:15:23;;;;;;;;;;;;;;;21.69;43.28;101314.19;5059920;28;19924;-77
2023/06/28 03:17:48;;;;;;;;;;;;;;;21.66;43.63;101314.00;5054645;28;20323;-76
2023/06/28 03:20:14;;;;;;;;;;;;;;;21.63;43.74;101317.34;5060114;28;19920;-77
2023/06/28 03:22:39;;;;;;;;;;;;;;;21.65;43.45;101317.84;5060634;28;19920;-77
2023/06/28 03:25:04;;;;;;;;;;;;;;;21.67;43.34;101319.16;5058435;28;19928;-78
2023/06/28 03:27:30;;;;;;;;;;;;;;;21.66;43.50;101317.53;5058277;28;19916;-77
2023/06/28 03:29:55;;;;;;;;;;;;;;;21.66;43.79;101317.53;5059697;28;19927;-78
2023/06/28 03:32:20;;;;;;;;;;;;;;;21.70;43.55;101320.44;5058966;28;19917;-77
2023/06/28 03:34:46;;;;;;;;;;;;;;;21.71;43.45;101322.06;5056815;28;20011;-78
2023/06/28 03:37:15;;;;;;;;;;;;;;;21.71;43.79;101316.59;5059936;28;19970;-77
2023/06/28 03:39:40;;;;;;;;;;;;;;;21.76;43.47;101315.72;5061218;28;19917;-77
2023/06/28 03:42:06;;;;;;;;;;;;;;;21.75;43.52;101314.91;5060451;28;19996;-78
2023/06/28 03:44:31;;;;;;;;;;;;;;;21.81;43.54;101315.56;5059365;28;19927;-77
2023/06/28 03:46:57;;;;;;;;;;;;;;;21.79;43.51;101318.63;5061930;28;19925;-78
2023/06/28 03:49:22;;;;;;;;;;;;;;;21.80;43.30;101320.22;5066541;28;19921;-78
2023/06/28 03:51:47;;;;;;;;;;;;;;;21.82;43.27;101318.00;5061820;28;19955;-78
2023/06/28 03:54:13;;;;;;;;;;;;;;;21.83;43.50;101325.06;5063340;28;19924;-77
2023/06/28 03:56:39;;;;;;;;;;;;;;;21.81;43.78;101327.28;5063686;28;19925;-77
2023/06/28 03:59:04;;;;;;;;;;;;;;;21.83;43.70;101325.06;5065444;28;19920;-77
2023/06/28 04:01:29;;;;;;;;;;;;;;;21.87;43.32;101325.25;5059352;28;19924;-77
2023/06/28 04:03:55;;;;;;;;;;;;;;;21.91;43.33;101327.06;5063475;28;19920;-77
2023/06/28 04:06:20;;;;;;;;;;;;;;;21.93;43.84;101324.00;5060298;28;19920;-77
2023/06/28 04:08:46;;;;;;;;;;;;;;;21.97;43.42;101325.00;5060328;28;19916;-77
2023/06/28 04:11:12;;;;;;;;;;;;;;;22.05;43.34;101331.66;5063544;28;19927;-77
2023/06/28 04:13:38;;;;;;;;;;;;;;;22.02;43.41;101331.13;5060567;28;19925;-77
2023/06/28 04:16:03;;;;;;;;;;;;;;;22.00;43.44;101324.38;5065964;28;19948;-77
2023/06/28 04:18:28;;;;;;;;;;;;;;;21.98;43.37;101324.69;5063258;28;19935;-77
2023/06/28 04:20:54;;;;;;;;;;;;;;;22.00;43.49;101318.91;5065090;28;19924;-77
2023/06/28 04:23:19;;;;;;;;;;;;;;;22.02;43.45;101322.94;5062555;28;20665;-77
2023/06/28 04:25:44;;;;;;;;;;;;;;;22.11;43.42;101327.69;5057849;28;20466;-77
2023/06/28 04:28:10;;;;;;;;;;;;;;;22.18;43.34;101333.50;5058555;28;19920;-77
2023/06/28 04:30:35;;;;;;;;;;;;;;;22.26;43.13;101328.13;5056941;28;19925;-77
2023/06/28 04:33:04;;;;;;;;;;;;;;;22.31;43.06;101336.16;5062527;28;19920;-77
2023/06/28 04:35:30;;;;;;;;;;;;;;;;;;5059261;28;19942;-77
2023/06/28 04:37:56;;;;;;;;;;;;;;;22.39;42.96;101339.25;5060232;28;19969;-77
2023/06/28 04:40:21;;;;;;;;;;;;;;;22.42;42.99;101336.69;5061489;28;20411;-77
2023/06/28 04:42:49;;;;;;;;;;;;;;;22.43;42.93;101343.75;5060725;28;19920;-79
2023/06/28 04:45:15;;;;;;;;;;;;;;;22.44;42.83;101345.41;5056983;28;20408;-79
2023/06/28 04:47:40;;;;;;;;;;;;;;;22.40;42.85;101344.38;5059400;28;20003;-79
2023/06/28 04:50:05;;;;;;;;;;;;;;;22.41;42.97;101347.94;5060317;28;19975;-79
2023/06/28 04:52:31;;;;;;;;;;;;;;;22.42;42.86;101341.34;5063678;28;19954;-78
2023/06/28 04:54:56;;;;;;;;;;;;;;;22.41;42.98;101343.28;5059106;28;20011;-79
2023/06/28 04:57:21;;;;;;;;;;;;;;;22.38;42.98;101343.91;5058978;28;19920;-79
2023/06/28 04:59:47;;;;;;;;;;;;;;;22.43;42.86;101343.75;5061944;28;19943;-78
2023/06/28 05:02:14;;;;;;;;;;;;;;;22.41;42.91;101339.72;5061589;28;19931;-79
2023/06/28 05:04:40;;;;;;;;;;;;;;;22.39;42.87;101342.78;5063824;28;19948;-79
2023/06/28 05:07:06;;;;;;;;;;;;;;;22.44;42.79;101334.47;5060520;28;20366;-79
2023/06/28 05:09:32;;;;;;;;;;;;;;;22.46;42.69;101337.69;5062642;28;19978;-78
2023/06/28 05:11:58;;;;;;;;;;;;;;;22.44;42.82;101339.09;5060140;28;20447;-78
2023/06/28 05:14:27;;;;;;;;;;;;;;;22.40;42.58;101341.66;5062506;28;19925;-79
2023/06/28 05:16:52;;;;;;;;;;;;;;;22.36;42.60;101339.88;5058436;28;20734;-78
2023/06/28 05:19:18;;;;;;;;;;;;;;;22.36;42.65;101345.34;5062573;28;19917;-78
2023/06/28 05:21:43;;;;;;;;;;;;;;;22.42;42.47;101346.81;5059721;28;19950;-78
2023/06/28 05:24:08;;;;;;;;;;;;;;;22.43;42.36;101345.69;5052756;28;19922;-78
2023/06/28 05:26:34;;;;;;;;;;;;;;;22.47;42.32;101341.22;5060396;28;20407;-78
2023/06/28 05:28:59;;;;;;;;;;;;;;;22.46;42.37;101345.88;5058953;28;19916;-78
2023/06/28 05:31:24;;;;;;;;;;;;;;;22.49;42.25;101348.00;5058823;28;20003;-81
2023/06/28 05:33:50;;;;;;;;;;;;;;;22.52;42.21;101352.00;5055695;28;19917;-79
2023/06/28 05:36:15;;;;;;;;;;;;;;;22.55;42.06;101354.91;5059907;28;20466;-79
2023/06/28 05:38:40;;;;;;;;;;;;;;;22.56;41.90;101353.00;5059784;28;19921;-78
2023/06/28 05:41:13;;;;;;;;;;;;;;;22.54;41.94;101358.75;5059200;28;19924;-78
2023/06/28 05:43:38;;;;;;;;;;;;;;;22.55;41.97;101352.19;5061328;28;19967;-78
2023/06/28 05:46:04;;;;;;;;;;;;;;;22.59;41.91;101358.63;5060383;28;19917;-79
2023/06/28 05:48:32;;;;;;;;;;;;;;;22.66;41.72;101346.47;5060682;28;19920;-78
2023/06/28 05:50:58;;;;;;;;;;;;;;;22.71;41.69;101349.03;5055139;28;19921;-79
2023/06/28 05:53:23;;;;;;;;;;;;;;;22.75;41.51;101345.34;5053418;28;20323;-79
2023/06/28 05:55:49;;;;;;;;;;;;;;;22.79;41.48;101351.78;5057081;28;20062;-78
2023/06/28 05:58:14;;;;;;;;;;;;;;;22.84;41.41;101361.84;5058289;28;20285;-79
2023/06/28 06:00:39;;;;;;;;;;;;;;;22.80;41.18;101358.91;5057767;28;19949;-78
2023/06/28 06:03:05;;;;;;;;;;;;;;;22.80;41.32;101356.16;5057955;28;19921;-79
2023/06/28 06:05:30;;;;;;;;;;;;;;;22.84;41.33;101359.91;5062000;28;20696;-77
2023/06/28 06:07:55;;;;;;;;;;;;;;;22.90;41.46;101357.81;5055739;28;19923;-78
2023/06/28 06:10:21;;;;;;;;;;;;;;;22.96;41.25;101359.28;5053466;28;19935;-79
2023/06/28 06:12:47;;;;;;;;;;;;;;;23.01;41.25;101367.34;5056524;28;21005;-78
2023/06/28 06:15:12;;;;;;;;;;;;;;;23.05;41.06;101364.78;5059761;28;19928;-78
2023/06/28 06:17:38;;;;;;;;;;;;;;;23.08;40.96;101366.88;5054576;28;19928;-78
2023/06/28 06:20:04;;;;;;;;;;;;;;;23.06;41.06;101367.19;5055203;28;19924;-78
2023/06/28 06:22:30;;;;;;;;;;;;;;;23.05;40.94;101370.25;5057861;28;20058;-79
2023/06/28 06:24:55;;;;;;;;;;;;;;;23.11;40.91;101377.97;5058090;28;20010;-80
2023/06/28 06:27:20;;;;;;;;;;;;;;;23.19;40.76;101370.94;5055141;28;19936;-78
2023/06/28 06:29:45;;;;;;;;;;;;;;;23.07;40.99;101371.53;5055835;28;19947;-78
2023/06/28 06:32:11;;;;;;;;;;;;;;;23.11;41.07;101374.44;5056273;28;20533;-78
2023/06/28 06:34:36;;;;;;;;;;;;;;;23.16;40.86;101377.84;5059400;28;20555;-78
2023/06/28 06:37:02;;;;;;;;;;;;;;;23.21;40.98;101374.97;5062495;28;19927;-78
2023/06/28 06:39:27;;;;;;;;;;;;;;;23.29;40.89;101383.50;5054806;28;19928;-78
2023/06/28 06:41:52;;;;;;;;;;;;;;;23.32;40.63;101385.59;5061107;28;20717;-78
2023/06/28 06:44:17;;;;;;;;;;;;;;;23.35;40.63;101390.44;5055838;28;19917;-78
2023/06/28 06:46:43;;;;;;;;;;;;;;;23.36;40.65;101384.66;5060717;28;19932;-78
2023/06/28 06:49:08;;;;;;;;;;;;;;;23.38;40.69;101390.63;5060263;28;19920;-79
2023/06/28 06:51:33;;;;;;;;;;;;;;;23.47;40.56;101391.41;5056883;28;19952;-78
2023/06/28 06:53:59;;;;;;;;;;;;;;;23.47;40.56;101405.09;5056259;28;19921;-78
2023/06/28 06:56:24;;;;;;;;;;;;;;;23.49;40.46;101400.09;5057066;28;19973;-78
2023/06/28 06:58:50;;;;;;;;;;;;;;;23.49;40.50;101399.31;5060040;28;19921;-79
2023/06/28 07:01:15;;;;;;;;;;;;;;;23.50;40.44;101401.72;5058782;28;19921;-77
2023/06/28 07:03:41;;;;;;;;;;;;;;;23.48;40.52;101398.50;5059035;28;19923;-78
2023/06/28 07:06:06;;;;;;;;;;;;;;;23.53;40.61;101408.50;5058943;28;20050;-78
2023/06/28 07:08:33;;;;;;;;;;;;;;;23.60;40.41;101406.13;5059106;28;19920;-78
2023/06/28 07:10:59;;;;;;;;;;;;;;;23.69;40.33;101414.31;5060647;28;20283;-78
2023/06/28 07:13:24;;;;;;;;;;;;;;;23.71;40.40;101407.44;5055987;28;20006;-78
2023/06/28 07:15:49;;;;;;;;;;;;;;;23.70;40.40;101418.69;5062242;28;19931;-78
2023/06/28 07:18:15;;;;;;;;;;;;;;;23.71;40.44;101415.63;5063763;28;19916;-77
2023/06/28 07:20:40;;;;;;;;;;;;;;;23.79;40.34;101420.28;5057852;28;19944;-78
2023/06/28 07:23:05;;;;;;;;;;;;;;;23.89;40.45;101419.19;5060823;28;20372;-78
2023/06/28 07:25:32;;;;;;;;;;;;;;;23.98;40.30;101421.91;5055688;28;20659;-79
2023/06/28 07:27:58;;;;;;;;;;;;;;;24.03;40.36;101422.56;5063126;28;20342;-78
2023/06/28 07:30:23;;;;;;;;;;;;;;;24.08;40.18;101435.28;5064367;28;19921;-78
2023/06/28 07:32:49;;;;;;;;;;;;;;;24.13;39.87;101437.06;5066249;28;20321;-78
2023/06/28 07:35:14;;;;;;;;;;;;;;;24.09;40.15;101437.69;5064539;28;20366;-78
2023/06/28 07:37:39;;;;;;;;;;;;;;;24.15;40.13;101437.53;5057619;28;19924;-79
2023/06/28 07:40:05;;;;;;;;;;;;;;;24.17;40.07;101438.81;5064175;28;19916;-78
2023/06/28 07:42:30;;;;;;;;;;;;;;;24.17;39.94;101430.59;5057989;28;20506;-78
2023/06/28 07:44:55;;;;;;;;;;;;;;;24.20;39.82;101431.88;5058003;28;20304;-77
2023/06/28 07:47:21;;;;;;;;;;;;;;;24.23;39.87;101437.50;5067844;28;19917;-78
2023/06/28 07:49:46;;;;;;;;;;;;;;;24.33;39.94;101444.63;5059548;28;19920;-78
2023/06/28 07:52:11;;;;;;;;;;;;;;;24.37;39.83;101443.66;5065303;28;20641;-79
2023/06/28 07:54:37;;;;;;;;;;;;;;;24.43;39.93;101449.00;5062573;28;19928;-78
2023/06/28 07:57:02;;;;;;;;;;;;;;;24.49;39.76;101450.41;5064497;28;19920;-79
2023/06/28 07:59:27;;;;;;;;;;;;;;;24.50;39.69;101446.53;5062276;28;20354;-78
2023/06/28 08:01:53;;;;;;;;;;;;;;;24.49;39.62;101444.94;5066952;28;19928;-78
2023/06/28 08:04:20;;;;;;;;;;;;;;;24.50;39.68;101446.53;5057658;28;20414;-78
2023/06/28 08:06:45;;;;;;;;;;;;;;;24.51;39.70;101450.91;5056041;28;19921;-81
2023/06/28 08:09:11;;;;;;;;;;;;;;;24.53;39.55;101449.44;5060363;28;21634;-81
2023/06/28 08:11:36;;;;;;;;;;;;;;;24.57;39.53;101452.31;5058405;28;19931;-80
2023/06/28 08:14:02;;;;;;;;;;;;;;;24.57;39.54;101458.59;5060003;28;19924;-80
2023/06/28 08:16:27;;;;;;;;;;;;;;;24.59;39.49;101452.78;5062506;28;20530;-80
2023/06/28 08:18:53;;;;;;;;;;;;;;;24.60;39.37;101457.97;5062247;28;19963;-78
2023/06/28 08:21:18;;;;;;;;;;;;;;;24.63;39.42;101462.81;5056855;28;19956;-79
2023/06/28 08:23:43;;;;;;;;;;;;;;;24.71;39.45;101456.50;5063451;28;20637;-78
2023/06/28 08:26:09;;;;;;;;;;;;;;;24.78;39.47;101464.22;5062339;28;19939;-79
2023/06/28 08:28:35;;;;;;;;;;;;;;;24.86;39.28;101465.31;5062243;28;20404;-78
2023/06/28 08:31:00;;;;;;;;;;;;;;;24.96;39.21;101465.78;5062348;28;20842;-79
2023/06/28 08:33:25;;;;;;;;;;;;;;;25.00;39.05;101464.00;5066321;28;19920;-78
2023/06/28 08:35:51;;;;;;;;;;;;;;;25.03;39.04;101461.75;5063346;28;19916;-80
2023/06/28 08:38:16;;;;;;;;;;;;;;;25.03;38.94;101461.75;5059480;28;20003;-79
2023/06/28 08:40:41;;;;;;;;;;;;;;;25.06;39.00;101466.56;5062074;28;19924;-79
2023/06/28 08:43:09;;;;;;;;;;;;;;;25.09;38.72;101465.91;5063833;28;19921;-79
2023/06/28 08:45:36;;;;;;;;;;;;;;;25.15;38.79;101473.66;5053308;28;19970;-79
2023/06/28 08:48:02;;;;;;;;;;;;;;;25.24;38.48;101468.09;5061427;28;20528;-77
2023/06/28 08:50:27;;;;;;;;;;;;;;;25.28;38.17;101467.09;5055077;28;19927;-79
2023/06/28 08:52:53;;;;;;;;;;;;;;;25.34;38.27;101465.00;5054064;28;20490;-79
2023/06/28 08:55:22;;;;;;;;;;;;;;;25.40;38.10;101473.84;5061565;28;20339;-78
2023/06/28 08:57:47;;;;;;;;;;;;;;;25.46;38.22;101478.00;5060877;28;20007;-77
2023/06/28 09:00:13;;;;;;;;;;;;;;;25.53;37.96;101470.88;5058880;28;20428;-78
2023/06/28 09:02:42;;;;;;;;;;;;;;;25.59;38.03;101476.97;5078457;28;19928;-78
2023/06/28 09:05:08;;;;;;;;;;;;;;;25.62;38.04;101476.28;5062247;28;19997;-78
2023/06/28 09:07:34;;;;;;;;;;;;;;;25.67;37.98;101484.31;5055863;28;20595;-78
2023/06/28 09:10:00;;;;;;;;;;;;;;;25.71;38.02;101481.78;5057339;28;19923;-78
2023/06/28 09:12:25;;;;;;;;;;;;;;;25.69;37.75;101490.34;5056668;28;20011;-78
2023/06/28 09:14:52;;;;;;;;;;;;;;;25.71;37.73;101482.56;5056921;28;20308;-79
2023/06/28 09:17:18;;;;;;;;;;;;;;;25.70;37.92;101482.91;5055525;28;20312;-79
2023/06/28 09:19:44;;;;;;;;;;;;;;;25.67;37.85;101475.28;5055671;28;20419;-78
2023/06/28 09:22:09;;;;;;;;;;;;;;;25.77;37.80;101477.69;5058942;28;19952;-78
2023/06/28 09:24:35;;;;;;;;;;;;;;;25.86;37.71;101486.69;5060921;28;20712;-78
2023/06/28 09:27:01;;;;;;;;;;;;;;;25.96;37.66;101486.28;5054589;28;19999;-78
2023/06/28 09:29:26;;;;;;;;;;;;;;;26.06;37.56;101488.63;5063415;28;20364;-78
2023/06/28 09:31:53;;;;;;;;;;;;;;;26.07;37.64;101495.72;5061407;28;19986;-79
2023/06/28 09:34:25;;;;;;;;;;;;;;;26.10;37.71;101491.50;5055967;28;19924;-78
2023/06/28 09:36:51;;;;;;;;;;;;;;;26.20;37.50;101489.13;5057030;28;19920;-78
2023/06/28 09:39:16;;;;;;;;;;;;;;;26.26;37.42;101489.75;5061138;28;20555;-78
2023/06/28 09:41:42;;;;;;;;;;;;;;;26.37;37.21;101496.47;5060026;28;19921;-78
2023/06/28 09:44:11;;;;;;;;;;;;;;;26.47;37.10;101492.50;5055239;28;19924;-78
2023/06/28 09:46:43;;;;;;;;;;;;;;;26.40;36.89;101495.81;5060309;28;20184;-78
2023/06/28 09:49:19;;;;;;;;;;;;;;;26.45;37.24;101495.59;5053631;28;19921;-78
2023/06/28 09:51:44;;;;;;;;;;;;;;;26.52;36.92;101497.78;5059007;28;20315;-78
2023/06/28 09:54:09;;;;;;;;;;;;;;;26.63;36.89;101507.22;5055714;28;19925;-78
2023/06/28 09:56:35;;;;;;;;;;;;;;;26.66;36.84;101514.00;5058215;28;19920;-77
2023/06/28 09:59:10;;;;;;;;;;;;;;;26.69;36.76;101505.88;5054845;28;20552;-80
2023/06/28 10:01:38;;;;;;;;;;;;;;;26.73;36.11;101506.78;5058445;28;20019;-78
2023/06/28 10:04:05;;;;;;;;;;;;;;;26.80;36.57;101509.00;5059098;28;19951;-79
2023/06/28 10:06:31;;;;;;;;;;;;;;;26.82;36.49;101514.16;5055111;28;19952;-78
2023/06/28 10:08:57;;;;;;;;;;;;;;;26.89;36.58;101508.91;5060386;28;19966;-78
2023/06/28 10:11:23;;;;;;;;;;;;;;;27.00;36.42;101507.34;5060564;28;20185;-79
2023/06/28 10:13:49;;;;;;;;;;;;;;;27.14;36.58;101494.09;5061645;28;20553;-78
2023/06/28 10:16:17;;;;;;;;;;;;;;;27.29;35.81;101498.09;5059238;28;20540;-79
2023/06/28 10:18:43;;;;;;;;;;;;;;;27.51;35.80;101494.09;5061331;28;19927;-78
2023/06/28 10:21:08;;;;;;;;;;;;;;;27.67;35.70;101497.78;5058933;28;19921;-79
2023/06/28 10:23:38;;;;;;;;;;;;;;;27.93;35.62;101500.16;5059116;28;19940;-78
2023/06/28 10:26:04;;;;;;;;;;;;;;;28.16;35.24;101494.91;5058854;28;19925;-79
2023/06/28 10:28:34;;;;;;;;;;;;;;;28.31;35.12;101494.22;5060010;28;19997;-78
2023/06/28 10:30:59;;;;;;;;;;;;;;;28.46;35.38;101493.47;5057317;28;20380;-79
2023/06/28 10:33:25;;;;;;;;;;;;;;;28.65;35.21;101492.00;5058652;28;19932;-78
2023/06/28 10:35:55;;;;;;;;;;;;;;;28.82;34.47;101488.91;5053807;28;19925;-78
2023/06/28 10:38:20;;;;;;;;;;;;;;;28.92;34.21;101488.44;5058433;28;19920;-79
2023/06/28 10:40:46;;;;;;;;;;;;;;;28.94;34.02;101485.31;5059926;28;20414;-81
2023/06/28 10:43:23;;;;;;;;;;;;;;;28.88;34.23;101491.06;5055677;28;20369;-79
2023/06/28 10:45:50;;;;;;;;;;;;;;;28.87;32.84;101480.41;5061647;28;19931;-78
2023/06/28 10:48:20;;;;;;;;;;;;;;;28.96;33.80;101478.28;5053212;28;19924;-79
2023/06/28 10:50:47;;;;;;;;;;;;;;;29.16;33.72;101479.97;5058312;28;19920;-78
2023/06/28 10:53:19;;;;;;;;;;;;;;;29.36;32.77;101477.28;5053306;28;19951;-79
2023/06/28 10:56:03;;;;;;;;;;;;;;;29.45;33.24;101475.97;5056283;28;19948;-78
2023/06/28 10:58:28;;;;;;;;;;;;;;;29.61;32.84;101475.91;5055526;28;19921;-78
2023/06/28 11:00:55;;;;;;;;;;;;;;;29.67;31.95;101471.72;5057490;28;20401;-79
2023/06/28 11:03:21;;;;;;;;;;;;;;;29.68;32.24;101481.63;5060035;28;19935;-79
2023/06/28 11:05:53;;;;;;;;;;;;;;;29.66;32.59;101475.66;5065136;28;19928;-79
2023/06/28 11:08:20;;;;;;;;;;;;;;;29.81;32.73;101470.47;5059399;28;19920;-78
2023/06/28 11:10:47;;;;;;;;;;;;;;;30.01;32.50;101478.41;5061227;28;19922;-78
2023/06/28 11:13:29;;;;;;;;;;;;;;;30.20;32.11;101479.59;5062599;28;19927;-79
2023/06/28 11:16:03;;;;;;;;;;;;;;;30.31;32.36;101477.81;5057257;28;19933;-78
2023/06/28 11:18:29;;;;;;;;;;;;;;;30.46;31.83;101476.94;5057503;28;19927;-79
2023/06/28 11:20:57;;;;;;;;;;;;;;;30.52;31.27;101481.03;5060042;28;19921;-79
2023/06/28 11:23:34;;;;;;;;;;;;;;;30.50;31.50;101482.53;5061310;28;20426;-79
2023/06/28 11:26:03;;;;;;;;;;;;;;;30.62;31.66;101483.22;5063442;28;20020;-79
2023/06/28 11:28:29;;;;;;;;;;;;;;;30.78;30.79;101491.41;5060989;28;19924;-80
2023/06/28 11:30:55;;;;;;;;;;;;;;;30.95;30.75;101490.91;5058600;28;19925;-78
2023/06/28 11:33:21;;;;;;;;;;;;;;;30.98;30.91;101479.09;5060752;28;19923;-78
2023/06/28 11:35:47;;;;;;;;;;;;;;;31.06;30.98;101481.97;5060465;28;19946;-78
2023/06/28 11:38:13;;;;;;;;;;;;;;;31.12;31.20;101484.09;5056079;28;20062;-78
2023/06/28 11:40:38;;;;;;;;;;;;;;;31.12;30.54;101472.22;5060312;28;20405;-80
2023/06/28 11:43:03;;;;;;;;;;;;;;;31.17;31.31;101478.25;5061507;28;20009;-78
2023/06/28 11:45:31;;;;;;;;;;;;;;;31.29;31.09;101480.03;5064397;28;20034;-80
2023/06/28 11:47:56;;;;;;;;;;;;;;;31.31;30.78;101483.22;5064411;28;19920;-78
2023/06/28 11:50:22;;;;;;;;;;;;;;;31.21;30.64;101479.09;5056367;28;19927;-79
2023/06/28 11:52:47;;;;;;;;;;;;;;;31.24;31.05;101478.41;5061413;28;19959;-79
2023/06/28 11:55:16;;;;;;;;;;;;;;;31.26;31.01;101486.31;5059220;28;19973;-80
2023/06/28 11:57:44;;;;;;;;;;;;;;;31.22;30.16;101477.13;5063732;28;20451;-79
2023/06/28 12:00:11;;;;;;;;;;;;;;;31.23;30.46;101481.50;5057697;28;19916;-78
2023/06/28 12:02:47;;;;;;;;;;;;;;;31.31;30.85;101474.94;5058926;28;19921;-79
2023/06/28 12:05:12;;;;;;;;;;;;;;;31.49;30.75;101464.91;5062410;28;21715;-78
2023/06/28 12:07:38;;;;;;;;;;;;;;;31.58;30.95;101472.94;5056120;28;19932;-78
2023/06/28 12:10:03;;;;;;;;;;;;;;;31.61;30.25;101477.75;5061416;28;20003;-78
2023/06/28 12:12:33;;;;;;;;;;;;;;;31.71;30.60;101474.31;5055339;28;19966;-78
2023/06/28 12:14:58;;;;;;;;;;;;;;;31.71;30.39;101481.84;5059280;28;19929;-78
2023/06/28 12:17:23;;;;;;;;;;;;;;;31.58;29.89;101473.75;5055789;28;19978;-79
2023/06/28 12:19:49;;;;;;;;;;;;;;;31.35;29.68;101486.84;5060462;28;19917;-78
2023/06/28 12:22:14;;;;;;;;;;;;;;;31.34;30.28;101484.44;5057686;28;19975;-78
2023/06/28 12:24:40;;;;;;;;;;;;;;;31.43;30.19;101477.50;5053272;28;19920;-78
2023/06/28 12:27:06;;;;;;;;;;;;;;;31.50;29.68;101476.78;5059212;28;19917;-79
2023/06/28 12:29:35;;;;;;;;;;;;;;;31.58;30.26;101476.50;5053837;28;19925;-79
2023/06/28 12:32:04;;;;;;;;;;;;;;;31.86;30.19;101478.13;5061630;28;19956;-78